createdAt,value
2023-02-22T00:03:00.280Z,3.97
2023-02-22T00:06:05.125Z,3.55
2023-02-22T00:09:09.320Z,4.78
2023-02-22T00:12:11.835Z,4.33
2023-02-22T00:15:16.296Z,4.78
2023-02-22T00:18:19.711Z,5.32
2023-02-22T00:21:22.652Z,4.43
2023-02-22T00:24:25.334Z,5.95
2023-02-22T00:27:27.818Z,5.20
2023-02-22T00:30:31.987Z,4.57
2023-02-22T00:33:36.632Z,3.75
2023-02-22T00:36:39.076Z,5.90
2023-02-22T00:39:42.103Z,4.65
2023-02-22T00:42:46.350Z,3.73
2023-02-22T00:45:49.341Z,3.65
2023-02-22T00:48:54.837Z,4.80
2023-02-22T00:51:57.720Z,6.00
2023-02-22T00:55:00.252Z,4.20
2023-02-22T00:58:03.472Z,6.10
2023-02-22T01:01:06.245Z,3.83
2023-02-22T01:04:09.872Z,3.60
2023-02-22T01:07:14.965Z,7.75
2023-02-22T01:10:22.099Z,4.97
2023-02-22T01:13:25.531Z,4.37
2023-02-22T01:16:28.301Z,4.40
2023-02-22T01:19:32.438Z,3.90
2023-02-22T01:22:35.020Z,5.18
2023-02-22T01:25:37.541Z,3.85
2023-02-22T01:28:40.119Z,5.60
2023-02-22T01:31:46.070Z,4.30
2023-02-22T01:34:48.619Z,3.92
2023-02-22T01:37:51.272Z,4.60
2023-02-22T01:40:56.256Z,3.38
2023-02-22T01:43:58.897Z,4.27
2023-02-22T01:47:03.887Z,4.05
2023-02-22T01:50:11.321Z,5.60
2023-02-22T01:53:18.780Z,4.40
2023-02-22T01:56:23.515Z,3.72
2023-02-22T01:59:29.442Z,4.43
2023-02-22T02:02:31.920Z,4.10
2023-02-22T02:05:35.532Z,4.15
2023-02-22T02:08:53.240Z,5.50
2023-02-22T02:11:56.603Z,3.08
2023-02-22T02:15:26.081Z,4.27
2023-02-22T02:18:29.457Z,4.70
2023-02-22T02:21:49.821Z,5.22
2023-02-22T02:24:55.423Z,3.83
2023-02-22T02:28:35.473Z,4.38
2023-02-22T02:31:41.270Z,5.37
2023-02-22T02:34:58.379Z,4.95
2023-02-22T02:38:26.549Z,6.18
2023-02-22T02:41:36.450Z,4.32
2023-02-22T02:44:47.930Z,4.15
2023-02-22T02:47:58.782Z,4.77
2023-02-22T02:51:04.286Z,6.18
2023-02-22T02:54:08.614Z,5.40
2023-02-22T02:57:11.537Z,5.82
2023-02-22T03:00:23.970Z,5.93
2023-02-22T03:03:45.421Z,4.63
2023-02-22T03:07:17.182Z,3.80
2023-02-22T03:10:41.120Z,5.63
2023-02-22T03:14:11.126Z,5.05
2023-02-22T03:17:30.677Z,4.70
2023-02-22T03:20:45.442Z,6.93
2023-02-22T03:24:25.603Z,5.57
2023-02-22T03:27:49.814Z,4.57
2023-02-22T03:31:03.229Z,5.60
2023-02-22T03:34:20.283Z,5.45
2023-02-22T03:37:26.928Z,5.03
2023-02-22T03:40:43.450Z,4.93
2023-02-22T03:43:50.696Z,4.03
2023-02-22T03:46:56.907Z,4.60
2023-02-22T03:50:07.479Z,5.75
2023-02-22T03:53:14.846Z,4.53
2023-02-22T03:56:28.510Z,6.97
2023-02-22T03:59:31.254Z,5.80
2023-02-22T04:02:35.549Z,9.38
2023-02-22T04:05:38.365Z,6.30
2023-02-22T04:08:40.808Z,6.33
2023-02-22T04:11:43.712Z,6.10
2023-02-22T04:14:47.043Z,6.15
2023-02-22T04:17:49.714Z,5.03
2023-02-22T04:20:54.627Z,5.70
2023-02-22T04:24:06.404Z,7.67
2023-02-22T04:27:08.970Z,7.75
2023-02-22T04:30:14.267Z,6.95
2023-02-22T04:33:18.458Z,5.10
2023-02-22T04:36:22.262Z,7.75
2023-02-22T04:39:25.403Z,6.43
2023-02-22T04:42:28.702Z,5.55
2023-02-22T04:45:31.272Z,6.13
2023-02-22T04:48:33.926Z,4.85
2023-02-22T04:51:37.439Z,7.18
2023-02-22T04:54:46.150Z,6.13
2023-02-22T04:57:48.574Z,6.60
2023-02-22T05:00:53.054Z,6.32
2023-02-22T05:03:56.371Z,6.43
2023-02-22T05:06:58.759Z,6.38
2023-02-22T05:10:02.996Z,7.13
2023-02-22T05:13:09.251Z,6.07
2023-02-22T05:16:11.898Z,7.90
2023-02-22T05:19:14.551Z,7.57
2023-02-22T05:22:17.801Z,6.00
2023-02-22T05:25:20.802Z,7.60
2023-02-22T05:28:23.278Z,7.72
2023-02-22T05:31:25.957Z,7.13
2023-02-22T05:34:28.581Z,5.93
2023-02-22T05:37:31.073Z,6.90
2023-02-22T05:40:35.238Z,9.03
2023-02-22T05:43:39.661Z,7.20
2023-02-22T05:46:42.294Z,7.25
2023-02-22T05:49:44.781Z,8.45
2023-02-22T05:52:48.797Z,7.35
2023-02-22T05:55:52.210Z,10.80
2023-02-22T05:58:55.045Z,7.00
2023-02-22T06:01:57.673Z,6.53
2023-02-22T06:05:00.226Z,7.60
2023-02-22T06:08:03.858Z,10.23
2023-02-22T06:11:06.786Z,8.27
2023-02-22T06:14:09.208Z,7.93
2023-02-22T06:17:12.725Z,8.73
2023-02-22T06:20:18.730Z,20.65
2023-02-22T06:23:21.424Z,23.17
2023-02-22T06:26:23.853Z,19.03
2023-02-22T06:29:28.086Z,21.98
2023-02-22T06:32:31.581Z,18.20
2023-02-22T06:35:34.046Z,29.85
2023-02-22T06:38:36.438Z,30.23
2023-02-22T06:41:39.229Z,31.17
2023-02-22T06:44:41.724Z,29.70
2023-02-22T06:47:44.188Z,24.05
2023-02-22T06:50:46.941Z,30.08
2023-02-22T06:53:49.515Z,27.05
2023-02-22T06:56:52.031Z,19.47
2023-02-22T06:59:54.533Z,14.10
2023-02-22T07:02:58.510Z,15.77
2023-02-22T07:06:02.282Z,13.35
2023-02-22T07:09:04.843Z,13.75
2023-02-22T07:12:08.431Z,16.17
2023-02-22T07:15:11.194Z,12.70
2023-02-22T07:18:16.161Z,16.90
2023-02-22T07:21:19.234Z,7.72
2023-02-22T07:24:22.296Z,7.85
2023-02-22T07:27:25.061Z,9.23
2023-02-22T07:30:31.482Z,7.80
2023-02-22T07:33:34.024Z,9.93
2023-02-22T07:36:36.878Z,7.35
2023-02-22T07:39:42.249Z,8.10
2023-02-22T07:43:07.054Z,9.40
2023-02-22T07:46:10.519Z,9.77
2023-02-22T07:49:13.160Z,7.50
2023-02-22T07:52:15.660Z,8.38
2023-02-22T07:55:20.469Z,9.57
2023-02-22T07:58:26.288Z,10.80
2023-02-22T08:01:29.219Z,17.67
2023-02-22T08:04:31.733Z,15.35
2023-02-22T08:07:34.223Z,15.80
2023-02-22T08:10:37.547Z,12.30
2023-02-22T08:13:40.410Z,12.33
2023-02-22T08:16:44.353Z,13.07
2023-02-22T08:19:46.877Z,11.93
2023-02-22T08:22:51.219Z,12.07
2023-02-22T08:25:54.375Z,10.70
2023-02-22T08:28:57.072Z,9.67
2023-02-22T08:32:00.952Z,12.13
2023-02-22T08:35:04.296Z,9.68
2023-02-22T08:38:08.190Z,8.27
2023-02-22T08:41:10.712Z,10.18
2023-02-22T08:44:13.456Z,7.97
2023-02-22T08:47:15.981Z,8.95
2023-02-22T08:50:23.495Z,10.18
2023-02-22T08:53:26.292Z,8.60
2023-02-22T08:56:30.161Z,8.60
2023-02-22T08:59:32.664Z,7.33
2023-02-22T09:02:35.241Z,6.88
2023-02-22T09:05:37.869Z,7.28
2023-02-22T09:08:40.899Z,7.38
2023-02-22T09:11:43.446Z,6.65
2023-02-22T09:14:45.955Z,8.67
2023-02-22T09:17:48.516Z,6.25
2023-02-22T09:20:52.240Z,9.95
2023-02-22T09:23:55.600Z,6.40
2023-02-22T09:27:00.168Z,6.20
2023-02-22T09:30:04.106Z,6.73
2023-02-22T09:33:17.859Z,5.68
2023-02-22T09:36:21.855Z,9.07
2023-02-22T09:39:24.946Z,7.30
2023-02-22T09:42:38.029Z,5.88
2023-02-22T09:45:54.312Z,7.47
2023-02-22T09:49:16.135Z,6.32
2023-02-22T09:52:28.043Z,7.57
2023-02-22T09:55:41.283Z,6.60
2023-02-22T09:58:55.168Z,9.23
2023-02-22T10:02:06.772Z,6.93
2023-02-22T10:05:33.901Z,9.00
2023-02-22T10:08:38.739Z,6.65
2023-02-22T10:12:11.934Z,7.00
2023-02-22T10:15:23.825Z,8.40
2023-02-22T10:18:50.865Z,6.07
2023-02-22T10:22:05.359Z,5.47
2023-02-22T10:25:18.076Z,6.03
2023-02-22T10:28:39.049Z,6.10
2023-02-22T10:31:46.263Z,6.57
2023-02-22T10:34:53.918Z,6.33
2023-02-22T10:38:02.795Z,7.65
2023-02-22T10:41:09.738Z,7.45
2023-02-22T10:44:12.272Z,6.53
2023-02-22T10:47:17.939Z,8.30
2023-02-22T10:50:22.237Z,7.63
2023-02-22T10:53:26.760Z,8.10
2023-02-22T10:56:29.360Z,6.55
2023-02-22T10:59:38.197Z,6.97
2023-02-22T11:03:20.868Z,8.25
2023-02-22T11:06:23.419Z,8.13
2023-02-22T11:09:25.859Z,8.90
2023-02-22T11:12:40.632Z,8.27
2023-02-22T11:15:44.189Z,10.65
2023-02-22T11:18:48.069Z,8.23
2023-02-22T11:21:54.241Z,11.73
2023-02-22T11:25:01.196Z,12.00
2023-02-22T11:28:09.751Z,8.95
2023-02-22T11:31:17.531Z,11.52
2023-02-22T11:34:31.750Z,10.18
2023-02-22T11:37:36.829Z,8.40
2023-02-22T11:40:40.574Z,9.98
2023-02-22T11:43:45.583Z,9.95
2023-02-22T11:46:48.919Z,10.23
2023-02-22T11:49:53.545Z,8.10
2023-02-22T11:53:22.151Z,10.13
2023-02-22T11:56:40.177Z,7.78
2023-02-22T12:00:00.229Z,10.23
2023-02-22T12:03:33.837Z,10.07
2023-02-22T12:07:05.631Z,11.15
2023-02-22T12:10:13.958Z,8.43
2023-02-22T12:13:37.510Z,9.82
2023-02-22T12:17:05.556Z,11.40
2023-02-22T12:20:24.741Z,8.38
2023-02-22T12:23:50.920Z,9.52
2023-02-22T12:27:09.739Z,8.73
2023-02-22T12:30:26.709Z,9.00
2023-02-22T12:33:35.895Z,8.82
2023-02-22T12:36:46.775Z,10.95
2023-02-22T12:39:58.893Z,9.05
2023-02-22T12:43:08.764Z,10.37
2023-02-22T12:46:24.089Z,10.00
2023-02-22T12:49:50.519Z,10.98
2023-02-22T12:52:59.939Z,8.93
2023-02-22T12:56:28.685Z,11.43
2023-02-22T12:59:41.870Z,13.00
2023-02-22T13:02:55.535Z,12.13
2023-02-22T13:06:17.752Z,10.30
2023-02-22T13:09:50.177Z,11.50
2023-02-22T13:13:36.805Z,10.88
2023-02-22T13:16:52.667Z,10.13
2023-02-22T13:20:06.215Z,10.77
2023-02-22T13:23:29.891Z,13.75
2023-02-22T13:26:52.000Z,12.65
2023-02-22T13:29:59.043Z,10.55
2023-02-22T13:33:29.259Z,9.80
2023-02-22T13:36:41.413Z,14.77
2023-02-22T13:40:07.939Z,10.80
2023-02-22T13:43:35.295Z,11.32
2023-02-22T13:46:52.552Z,15.50
2023-02-22T13:49:59.938Z,10.47
2023-02-22T13:53:09.848Z,9.35
2023-02-22T13:56:14.646Z,10.95
2023-02-22T13:59:37.249Z,10.38
2023-02-22T14:03:02.329Z,10.75
2023-02-22T14:06:24.838Z,9.80
2023-02-22T14:09:45.583Z,12.68
2023-02-22T14:12:49.441Z,13.63
2023-02-22T14:15:58.589Z,12.15
2023-02-22T14:19:14.500Z,12.98
2023-02-22T14:22:27.613Z,12.30
2023-02-22T14:25:42.936Z,12.85
2023-02-22T14:28:52.696Z,11.80
2023-02-22T14:32:00.831Z,10.90
2023-02-22T14:35:28.714Z,16.20
2023-02-22T14:38:35.994Z,11.97
2023-02-22T14:41:44.568Z,14.02
2023-02-22T14:45:14.545Z,15.48
2023-02-22T14:48:43.124Z,9.10
2023-02-22T14:52:04.182Z,12.50
2023-02-22T14:55:27.184Z,12.27
2023-02-22T14:58:37.414Z,12.85
2023-02-22T15:01:50.810Z,14.88
2023-02-22T15:04:58.419Z,17.48
2023-02-22T15:08:04.974Z,13.77
2023-02-22T15:11:31.062Z,13.97
2023-02-22T15:14:38.887Z,17.58
2023-02-22T15:17:42.346Z,13.15
2023-02-22T15:20:48.371Z,12.82
2023-02-22T15:23:53.809Z,15.05
2023-02-22T15:27:05.009Z,15.13
2023-02-22T15:30:16.065Z,14.45
2023-02-22T15:33:26.968Z,16.27
2023-02-22T15:36:34.678Z,21.92
2023-02-22T15:39:44.118Z,18.30
2023-02-22T15:42:49.534Z,17.47
2023-02-22T15:45:52.413Z,17.40
2023-02-22T15:49:05.296Z,21.70
2023-02-22T15:52:19.758Z,14.80
2023-02-22T15:55:26.172Z,11.88
2023-02-22T15:58:30.121Z,12.43
2023-02-22T16:01:40.704Z,16.23
2023-02-22T16:04:54.536Z,13.35
2023-02-22T16:08:01.953Z,15.70
2023-02-22T16:11:13.501Z,9.00
2023-02-22T16:14:31.394Z,9.03
2023-02-22T16:18:02.437Z,9.90
2023-02-22T16:21:14.882Z,12.45
2023-02-22T16:24:30.951Z,9.38
2023-02-22T16:27:47.428Z,13.60
2023-02-22T16:30:58.179Z,14.70
2023-02-22T16:34:02.744Z,16.60
2023-02-22T16:37:05.548Z,14.82
2023-02-22T16:40:19.570Z,14.82
2023-02-22T16:43:24.532Z,12.80
2023-02-22T16:46:27.188Z,13.17
2023-02-22T16:49:29.669Z,14.65
2023-02-22T16:52:32.446Z,12.73
2023-02-22T16:55:36.648Z,11.95
2023-02-22T16:58:41.201Z,23.63
2023-02-22T17:01:43.934Z,11.67
2023-02-22T17:04:49.800Z,8.23
2023-02-22T17:07:52.449Z,13.18
2023-02-22T17:10:56.924Z,9.93
2023-02-22T17:13:59.644Z,13.00
2023-02-22T17:17:02.516Z,11.80
2023-02-22T17:20:11.441Z,14.23
2023-02-22T17:23:14.820Z,18.88
2023-02-22T17:26:17.995Z,10.30
2023-02-22T17:29:20.755Z,7.70
2023-02-22T17:32:23.715Z,12.00
2023-02-22T17:35:27.090Z,18.95
2023-02-22T17:38:31.304Z,17.75
2023-02-22T17:41:33.855Z,11.95
2023-02-22T17:44:36.478Z,16.77
2023-02-22T17:47:42.646Z,16.77
2023-02-22T17:50:47.045Z,16.10
2023-02-22T17:53:50.434Z,14.57
2023-02-22T17:56:53.345Z,17.42
2023-02-22T17:59:56.797Z,17.95
2023-02-22T18:03:12.117Z,34.03
2023-02-22T18:06:22.568Z,24.52
2023-02-22T18:09:26.868Z,22.95
2023-02-22T18:12:29.964Z,19.92
2023-02-22T18:15:35.600Z,18.90
2023-02-22T18:18:38.399Z,23.67
2023-02-22T18:21:41.141Z,15.20
2023-02-22T18:24:43.948Z,13.93
2023-02-22T18:27:46.682Z,13.60
2023-02-22T18:30:50.451Z,18.83
2023-02-22T18:33:53.498Z,15.20
2023-02-22T18:36:56.037Z,15.35
2023-02-22T18:39:58.989Z,17.70
2023-02-22T18:43:02.270Z,16.30
2023-02-22T18:46:32.026Z,19.13
2023-02-22T18:49:34.703Z,18.70
2023-02-22T18:52:47.365Z,19.05
2023-02-22T18:55:50.039Z,19.63
2023-02-22T18:58:53.904Z,23.45
2023-02-22T19:01:57.576Z,21.60
2023-02-22T19:05:00.499Z,18.97
2023-02-22T19:08:04.158Z,21.38
2023-02-22T19:11:09.630Z,22.65
2023-02-22T19:14:13.217Z,26.10
2023-02-22T19:17:16.505Z,22.90
2023-02-22T19:20:19.367Z,23.67
2023-02-22T19:23:22.054Z,24.88
2023-02-22T19:26:27.455Z,22.90
2023-02-22T19:29:31.177Z,23.05
2023-02-22T19:32:36.554Z,24.42
2023-02-22T19:35:48.110Z,26.60
2023-02-22T19:38:51.401Z,25.73
2023-02-22T19:41:55.829Z,26.25
2023-02-22T19:44:59.630Z,24.58
2023-02-22T19:48:02.155Z,22.60
2023-02-22T19:51:06.581Z,29.30
2023-02-22T19:54:14.536Z,25.63
2023-02-22T19:57:17.282Z,29.67
2023-02-22T20:00:24.231Z,29.33
2023-02-22T20:03:28.268Z,27.40
2023-02-22T20:06:40.443Z,29.10
2023-02-22T20:09:43.320Z,25.10
2023-02-22T20:12:46.313Z,20.17
2023-02-22T20:15:50.982Z,25.13
2023-02-22T20:18:55.000Z,24.55
2023-02-22T20:22:00.360Z,26.90
2023-02-22T20:25:03.274Z,23.08
2023-02-22T20:28:07.808Z,20.13
2023-02-22T20:31:13.805Z,23.50
2023-02-22T20:34:16.852Z,20.10
2023-02-22T20:37:19.535Z,26.77
2023-02-22T20:40:22.752Z,22.25
2023-02-22T20:43:25.829Z,21.25
2023-02-22T20:46:31.655Z,16.92
2023-02-22T20:49:35.988Z,19.52
2023-02-22T20:52:38.843Z,21.23
2023-02-22T20:55:48.840Z,19.67
2023-02-22T20:58:51.940Z,23.05
2023-02-22T21:01:55.654Z,14.90
2023-02-22T21:04:58.520Z,18.35
2023-02-22T21:08:03.286Z,13.77
2023-02-22T21:11:13.940Z,17.95
2023-02-22T21:14:19.727Z,13.30
2023-02-22T21:17:28.786Z,14.65
2023-02-22T21:20:31.814Z,12.45
2023-02-22T21:23:34.545Z,14.30
2023-02-22T21:26:39.528Z,16.42
2023-02-22T21:29:42.966Z,18.58
2023-02-22T21:32:51.673Z,22.67
2023-02-22T21:35:54.375Z,24.35
2023-02-22T21:39:00.380Z,18.70
2023-02-22T21:42:03.425Z,24.83
2023-02-22T21:45:08.362Z,23.65
2023-02-22T21:48:14.134Z,22.60
2023-02-22T21:51:22.291Z,24.50
2023-02-22T21:54:25.024Z,21.23
2023-02-22T21:57:27.574Z,21.20
2023-02-22T22:00:31.085Z,19.15
2023-02-22T22:03:36.248Z,22.10
2023-02-22T22:06:38.707Z,19.33
2023-02-22T22:09:41.508Z,21.60
2023-02-22T22:12:50.054Z,21.05
2023-02-22T22:15:52.580Z,21.23
2023-02-22T22:18:55.267Z,20.33
2023-02-22T22:21:58.453Z,18.13
2023-02-22T22:25:03.393Z,17.37
2023-02-22T22:28:07.845Z,17.52
2023-02-22T22:31:10.970Z,16.02
2023-02-22T22:34:13.671Z,15.60
2023-02-22T22:37:16.517Z,13.57
2023-02-22T22:40:19.123Z,15.50
2023-02-22T22:43:21.650Z,16.92
2023-02-22T22:46:24.296Z,15.18
2023-02-22T22:49:29.361Z,14.32
2023-02-22T22:52:35.165Z,15.05
2023-02-22T22:55:42.062Z,11.03
2023-02-22T22:58:50.490Z,17.45
2023-02-22T23:01:54.673Z,13.60
2023-02-22T23:04:57.482Z,11.50
2023-02-22T23:08:04.780Z,11.98
2023-02-22T23:11:09.173Z,13.73
2023-02-22T23:14:19.613Z,11.88
2023-02-22T23:17:31.433Z,10.55
2023-02-22T23:20:38.647Z,11.60
2023-02-22T23:23:41.664Z,12.35
2023-02-22T23:26:51.024Z,12.23
2023-02-22T23:29:53.567Z,13.75
2023-02-22T23:32:57.062Z,14.40
2023-02-22T23:35:59.534Z,10.57
2023-02-22T23:39:02.006Z,10.52
2023-02-22T23:42:04.793Z,13.67
2023-02-22T23:45:10.536Z,12.23
2023-02-22T23:48:12.921Z,12.50
2023-02-22T23:51:19.717Z,11.50
2023-02-22T23:54:25.455Z,15.88
2023-02-22T23:57:28.000Z,15.27
